Aledo, IL

10:54 AM CDT on May 03, 2015 (GMT -0500)
Davenport Municipal | | Change Station
CLOSE
Current Station
Airport
Location: Davenport,
Elevation: 755 ft
Nearby Weather Stations

Elev 755 ft 41.61 °N, 90.59 °W | Updated 32 minutes ago

Mostly Cloudy
Mostly Cloudy
67 °F
Feels Like 67 °F
N
18
Wind Variable Wind from SSE

Today
High -- | Low -- °F
--% Chance of Precip.
Yesterday
High -- | Low -- °F
Precip. -- in
5:58 AM 8:02 PM
Full, 100% visible
Pressure 29.89 in
Visibility 10.0 miles
Clouds Few 7000 ft
Dew Point 52 °F
Humidity 59%
Rainfall 0.03 in
Snow Depth Not available.
UV 6 out of 12
Pollen 9.40 out of 12
Air Quality Not available.
Flu Activity Local Activity
SPECI KDVN 031522Z AUTO 16016KT 10SM FEW070 19/11 A2989 RMK AO2 T01940111

More Conditions Fewer Conditions

Pressure 29.89 in
Visibility 10.0 miles
Clouds Few 7000 ft
Dew Point 52 °F
Humidity 59%
Rainfall 0.03 in
Snow Depth Not available.
UV 6 out of 12
Pollen 9.40 out of 12
Air Quality Not available.
Flu Activity Local Activity
SPECI KDVN 031522Z AUTO 16016KT 10SM FEW070 19/11 A2989 RMK AO2 T01940111

More Conditions Fewer Conditions

Nepal has a long way to go to dig out and rebuild from a devastating earthquake. We have teamed up with several charities and organizations to make contributing to the relief effort as easy as possible.
How you can help: Portlight Strategies | Red Cross

10-Day Weather Forecast

Almanac

Astronomy

May. 03, 2015 Rise Set
Actual Time
Civil Twilight
Nautical Twilight
Astronomical Twilight
Moon
Length of Visible Light
Length of Day
Tomorrow will be .
, % of the Moon is Illuminated

Today's Extremes

State Highs State Lows

Community

WunderPhotos

Upload Photos

1,818,256 photos uploaded!

WunderBlogs® & News

Nearby

Air Quality

  Air Quality AQ Index Pollutant
Not available.

Snow Depth

Station Depth Elevation

Earthquake Activity

City Distance Mag. Time & Date
Minimum magnitude displayed is 2.5.

Coastal Water Temperatures

Place Temperature

Stations

Nearby Weather Stations

Station Location Temp. Windchill Dew Point Humidity Wind Precip. Elev Updated Type